Alpha, IL

3:31 AM CDT on August 24, 2016 (GMT -0500)
Lundeen Farms | | Change Station

Elev 755 ft 41.13 °N, 90.18 °W | Updated 13 minutes ago

Light Thunderstorms and Rain
Light Thunderstorm Rain
71.1 °F
Feels Like 71.1 °F
N
6.8
Wind Variable Wind from SW

Today
High -- | Low -- °F
--% Chance of Precip.
Yesterday
High -- | Low -- °F
Precip. -- in
Pressure 29.99 in
Visibility 7.0 miles
Clouds Overcast 700 ft
Dew Point 70 °F
Humidity 96%
Rainfall 0.00 in
Snow Depth Not available.
6:20 AM 7:46 PM
Waning Gibbous, 59% visible
METAR KGBG 240815Z AUTO 16007KT 7SM -TSRA OVC007 21/21 A2999 RMK AO2 LTG DSNT W THRU NE P0005 T02130207
Pressure 29.99 in
Visibility 7.0 miles
Clouds Overcast 700 ft
Dew Point 70 °F
Humidity 96%
Rainfall 0.00 in
Snow Depth Not available.
6:20 AM 7:46 PM
Waning Gibbous, 59% visible
METAR KGBG 240815Z AUTO 16007KT 7SM -TSRA OVC007 21/21 A2999 RMK AO2 LTG DSNT W THRU NE P0005 T02130207

10-Day Weather Forecast

Almanac

Astronomy

Aug. 24, 2016 Rise Set
Actual Time
Civil Twilight
Nautical Twilight
Astronomical Twilight
Moon
Length of Visible Light
Length of Day
Tomorrow will be .
, % of the Moon is Illuminated

Today's Extremes

State Highs State Lows

Community

WunderPhotos

Upload Photos

1,934,560 photos uploaded!

WunderBlog® & News

Nearby

Air Quality

  Air Quality AQ Index Pollutant
Not available.

Snow Depth

Station Depth Elevation

Earthquake Activity

City Distance Mag. Time & Date
Minimum magnitude displayed is 2.5.

Coastal Water Temperatures

Place Temperature

Stations

Nearby Weather Stations

Station Location Temp. Windchill Dew Point Humidity Wind Precip. Elev Updated Type
                   

Watches & Warnings

There are currently no watches in effect.